createdAt,value
2018-06-12T00:01:26.869Z,80.20
2018-06-12T00:06:29.415Z,80.60
2018-06-12T00:11:31.944Z,80.60
2018-06-12T00:16:34.486Z,80.60
2018-06-12T00:21:37.025Z,80.00
2018-06-12T00:26:39.553Z,80.60
2018-06-12T00:31:42.101Z,80.60
2018-06-12T00:36:44.646Z,80.30
2018-06-12T00:41:47.220Z,80.50
2018-06-12T00:46:49.774Z,80.30
2018-06-12T00:51:52.334Z,80.20
2018-06-12T00:57:07.516Z,81.00
2018-06-12T01:02:10.056Z,80.20
2018-06-12T01:07:12.619Z,80.40
2018-06-12T01:12:15.168Z,80.80
2018-06-12T01:17:17.708Z,80.70
2018-06-12T01:22:21.126Z,80.30
2018-06-12T01:27:23.660Z,80.30
2018-06-12T01:32:26.674Z,80.70
2018-06-12T01:37:29.215Z,81.00
2018-06-12T01:42:31.771Z,81.10
2018-06-12T01:47:34.328Z,81.50
2018-06-12T01:52:36.880Z,81.40
2018-06-12T01:57:40.199Z,81.70
2018-06-12T02:02:42.745Z,81.70
2018-06-12T02:07:45.275Z,81.90
2018-06-12T02:12:47.828Z,82.50
2018-06-12T02:17:50.376Z,82.00
2018-06-12T02:22:53.508Z,82.00
2018-06-12T02:27:56.096Z,81.90
2018-06-12T02:32:58.688Z,82.30
2018-06-12T02:38:01.216Z,82.10
2018-06-12T02:43:03.768Z,82.20
2018-06-12T02:48:07.095Z,82.30
2018-06-12T02:53:09.648Z,82.20
2018-06-12T02:58:12.196Z,82.40
2018-06-12T03:03:14.729Z,82.90
2018-06-12T03:08:17.322Z,83.10
2018-06-12T03:13:19.883Z,83.00
2018-06-12T03:18:23.180Z,83.10
2018-06-12T03:23:25.816Z,83.10
2018-06-12T03:28:28.361Z,83.50
2018-06-12T03:33:30.901Z,83.20
2018-06-12T03:38:34.200Z,83.80
2018-06-12T03:43:36.751Z,83.80
2018-06-12T03:48:39.331Z,83.60
2018-06-12T03:53:41.878Z,83.70
2018-06-12T03:58:44.445Z,83.70
2018-06-12T04:03:46.984Z,83.90
2018-06-12T04:08:49.532Z,83.80
2018-06-12T04:13:52.078Z,83.90
2018-06-12T04:18:54.668Z,83.80
2018-06-12T04:23:57.204Z,83.90
2018-06-12T04:28:59.772Z,84.00
2018-06-12T04:34:02.324Z,84.10
2018-06-12T04:39:05.632Z,84.00
2018-06-12T04:44:08.176Z,84.00
2018-06-12T04:49:10.738Z,84.20
2018-06-12T04:54:14.088Z,84.60
2018-06-12T04:59:16.631Z,84.60
2018-06-12T05:04:20.827Z,84.80
2018-06-12T05:09:23.351Z,84.30
2018-06-12T05:14:25.893Z,84.30
2018-06-12T05:19:28.464Z,83.90
2018-06-12T05:24:31.016Z,84.60
2018-06-12T05:29:33.596Z,84.50
2018-06-12T05:34:36.907Z,84.60
2018-06-12T05:39:39.496Z,84.50
2018-06-12T05:44:42.061Z,85.00
2018-06-12T05:49:44.712Z,85.50
2018-06-12T05:54:47.252Z,86.00
2018-06-12T05:59:49.809Z,86.00
2018-06-12T06:04:53.122Z,85.50
2018-06-12T06:09:56.463Z,84.80
2018-06-12T06:14:59.008Z,84.70
2018-06-12T06:20:01.552Z,85.10
2018-06-12T06:25:04.103Z,85.00
2018-06-12T06:30:06.657Z,84.20
2018-06-12T06:35:09.209Z,84.70
2018-06-12T06:40:11.788Z,84.40
2018-06-12T06:45:14.339Z,84.40
2018-06-12T06:50:17.668Z,84.10
2018-06-12T06:55:20.225Z,84.10
2018-06-12T07:00:22.793Z,83.80
2018-06-12T07:05:25.320Z,84.30
2018-06-12T07:10:27.896Z,84.00
2018-06-12T07:15:30.549Z,84.50
2018-06-12T07:20:33.112Z,83.70
2018-06-12T07:25:35.664Z,84.00
2018-06-12T07:30:38.214Z,83.80
2018-06-12T07:35:40.757Z,83.60
2018-06-12T07:40:44.053Z,84.20
2018-06-12T07:45:46.601Z,84.20
2018-06-12T07:50:49.167Z,84.00
2018-06-12T07:55:51.699Z,83.70
2018-06-12T08:00:54.287Z,83.80
2018-06-12T08:05:56.836Z,83.70
2018-06-12T08:10:59.375Z,83.50
2018-06-12T08:16:01.921Z,83.40
2018-06-12T08:21:04.472Z,83.60
2018-06-12T08:26:07.054Z,83.00
2018-06-12T08:31:09.584Z,84.00
2018-06-12T08:36:12.123Z,83.90
2018-06-12T08:41:14.678Z,83.30
2018-06-12T08:46:17.982Z,81.30
2018-06-12T08:51:20.592Z,81.30
2018-06-12T08:56:23.133Z,80.50
2018-06-12T09:01:25.705Z,79.60
2018-06-12T09:06:28.244Z,78.10
2018-06-12T09:11:30.785Z,76.90
2018-06-12T09:16:34.104Z,75.60
2018-06-12T09:21:36.628Z,76.20
2018-06-12T09:26:39.193Z,76.30
2018-06-12T09:31:41.728Z,74.50
2018-06-12T09:36:44.288Z,74.30
2018-06-12T09:41:46.821Z,74.50
2018-06-12T09:46:49.367Z,74.40
2018-06-12T09:51:52.005Z,74.10
2018-06-12T09:56:55.358Z,73.40
2018-06-12T10:01:57.971Z,73.40
2018-06-12T10:07:00.544Z,72.90
2018-06-12T10:12:03.087Z,72.50
2018-06-12T10:17:05.626Z,71.70
2018-06-12T10:22:08.177Z,71.00
2018-06-12T10:27:10.753Z,70.60
2018-06-12T10:32:13.299Z,69.80
2018-06-12T10:37:15.895Z,70.20
2018-06-12T10:42:18.480Z,68.80
2018-06-12T10:47:21.114Z,68.90
2018-06-12T10:52:23.764Z,67.90
2018-06-12T10:57:26.293Z,67.50
2018-06-12T11:02:28.848Z,66.80
2018-06-12T11:07:31.391Z,66.60
2018-06-12T11:12:33.941Z,65.50
2018-06-12T11:17:36.505Z,65.90
2018-06-12T11:22:39.045Z,66.80
2018-06-12T11:27:41.590Z,66.30
2018-06-12T11:32:44.120Z,66.20
2018-06-12T11:37:47.466Z,66.30
2018-06-12T11:42:50.017Z,66.30
2018-06-12T11:47:52.572Z,66.30
2018-06-12T11:52:55.118Z,66.00
2018-06-12T11:57:57.663Z,65.80
2018-06-12T12:03:00.217Z,64.80
2018-06-12T12:08:02.828Z,64.50
2018-06-12T12:13:05.385Z,64.50
2018-06-12T12:18:07.933Z,65.00
2018-06-12T12:23:10.460Z,63.50
2018-06-12T12:28:13.018Z,64.30
2018-06-12T12:33:15.629Z,63.30
2018-06-12T12:38:18.186Z,62.90
2018-06-12T12:43:20.716Z,61.60
2018-06-12T12:48:23.270Z,62.20
2018-06-12T12:53:25.836Z,62.90
2018-06-12T12:58:28.376Z,61.30
2018-06-12T13:03:30.916Z,60.80
2018-06-12T13:08:33.481Z,59.50
2018-06-12T13:13:36.041Z,61.10
2018-06-12T13:18:38.583Z,59.80
2018-06-12T13:23:41.180Z,59.90
2018-06-12T13:28:43.756Z,60.00
2018-06-12T13:33:46.299Z,60.40
2018-06-12T13:38:48.848Z,61.40
2018-06-12T13:43:51.400Z,61.80
2018-06-12T13:48:53.941Z,61.80
2018-06-12T13:53:56.502Z,62.20
2018-06-12T13:58:59.047Z,62.00
2018-06-12T14:04:01.602Z,62.50
2018-06-12T14:09:04.162Z,62.40
2018-06-12T14:14:06.707Z,61.90
2018-06-12T14:19:09.233Z,62.00
2018-06-12T14:24:12.711Z,60.90
2018-06-12T14:29:15.268Z,60.80
2018-06-12T14:34:17.815Z,60.80
2018-06-12T14:39:20.354Z,60.30
2018-06-12T14:44:22.905Z,59.80
2018-06-12T14:49:25.452Z,59.70
2018-06-12T14:54:28.031Z,60.90
2018-06-12T14:59:30.581Z,61.70
2018-06-12T15:04:33.110Z,61.50
2018-06-12T15:09:35.649Z,61.90
2018-06-12T15:14:38.957Z,61.00
2018-06-12T15:19:41.538Z,61.00
2018-06-12T15:24:44.947Z,59.50
2018-06-12T15:29:47.528Z,59.30
2018-06-12T15:34:50.092Z,59.00
2018-06-12T15:39:52.624Z,58.80
2018-06-12T15:44:55.164Z,58.90
2018-06-12T15:49:57.701Z,59.40
2018-06-12T15:55:00.255Z,59.40
2018-06-12T16:00:02.842Z,60.30
2018-06-12T16:05:05.463Z,60.70
2018-06-12T16:10:08.001Z,61.30
2018-06-12T16:15:10.542Z,61.80
2018-06-12T16:20:13.091Z,62.30
2018-06-12T16:25:15.631Z,62.50
2018-06-12T16:30:18.275Z,62.20
2018-06-12T16:35:20.826Z,61.50
2018-06-12T16:40:23.389Z,61.90
2018-06-12T16:45:25.929Z,62.00
2018-06-12T16:50:28.472Z,62.10
2018-06-12T16:55:31.816Z,62.50
2018-06-12T17:00:34.380Z,62.50
2018-06-12T17:05:36.941Z,62.70
2018-06-12T17:10:39.564Z,62.70
2018-06-12T17:15:42.084Z,62.80
2018-06-12T17:20:44.678Z,63.50
2018-06-12T17:25:47.209Z,63.70
2018-06-12T17:30:49.757Z,64.40
2018-06-12T17:35:52.324Z,64.70
2018-06-12T17:40:54.886Z,64.90
2018-06-12T17:45:57.427Z,65.30
2018-06-12T17:51:00.033Z,65.40
2018-06-12T17:56:02.582Z,65.30
2018-06-12T18:01:05.130Z,65.80
2018-06-12T18:06:07.683Z,65.90
2018-06-12T18:11:10.225Z,66.10
2018-06-12T18:16:12.760Z,66.00
2018-06-12T18:21:15.300Z,65.90
2018-06-12T18:26:17.886Z,65.90
2018-06-12T18:31:20.440Z,66.10
2018-06-12T18:36:22.972Z,66.30
2018-06-12T18:41:25.598Z,66.60
2018-06-12T18:46:28.153Z,66.70
2018-06-12T18:51:30.702Z,66.80
2018-06-12T18:56:33.278Z,66.90
2018-06-12T19:01:35.844Z,67.00
2018-06-12T19:06:38.425Z,67.40
2018-06-12T19:11:40.960Z,68.40
2018-06-12T19:16:43.507Z,69.20
2018-06-12T19:21:46.828Z,70.40
2018-06-12T19:26:49.413Z,70.40
2018-06-12T19:31:51.976Z,70.90
2018-06-12T19:36:54.547Z,71.60
2018-06-12T19:41:57.144Z,71.80
2018-06-12T19:46:59.707Z,72.10
2018-06-12T19:52:02.273Z,72.30
2018-06-12T19:57:04.996Z,72.40
2018-06-12T20:02:07.545Z,72.20
2018-06-12T20:07:10.446Z,72.70
2018-06-12T20:12:13.002Z,72.40
2018-06-12T20:17:15.540Z,72.70
2018-06-12T20:22:18.100Z,72.90
2018-06-12T20:27:20.642Z,73.10
2018-06-12T20:32:23.230Z,73.20
2018-06-12T20:37:25.924Z,73.00
2018-06-12T20:42:28.637Z,73.20
2018-06-12T20:47:31.213Z,73.60
2018-06-12T20:52:33.760Z,73.90
2018-06-12T20:57:36.329Z,73.60
2018-06-12T21:02:38.873Z,73.50
2018-06-12T21:07:41.436Z,73.30
2018-06-12T21:12:44.061Z,73.60
2018-06-12T21:17:46.582Z,73.50
2018-06-12T21:22:49.124Z,72.90
2018-06-12T21:27:52.449Z,74.10
2018-06-12T21:32:54.995Z,74.10
2018-06-12T21:37:57.531Z,75.50
2018-06-12T21:43:00.094Z,75.90
2018-06-12T21:48:02.637Z,76.90
2018-06-12T21:53:05.960Z,76.90
2018-06-12T21:58:08.623Z,76.80
2018-06-12T22:03:11.264Z,77.60
2018-06-12T22:08:13.779Z,77.60
2018-06-12T22:13:16.301Z,77.60
2018-06-12T22:18:18.845Z,77.90
2018-06-12T22:23:22.170Z,78.60
2018-06-12T22:28:24.720Z,78.60
2018-06-12T22:33:27.280Z,79.10
2018-06-12T22:38:30.585Z,79.60
2018-06-12T22:43:33.128Z,79.50
2018-06-12T22:48:35.673Z,79.40
2018-06-12T22:53:38.232Z,79.80
2018-06-12T22:58:40.807Z,79.60
2018-06-12T23:03:44.125Z,80.20
2018-06-12T23:08:46.673Z,80.20
2018-06-12T23:13:49.222Z,80.60
2018-06-12T23:18:51.770Z,80.70
2018-06-12T23:23:54.340Z,81.00
2018-06-12T23:28:56.946Z,81.30
2018-06-12T23:33:59.497Z,81.00
2018-06-12T23:39:02.076Z,81.10
2018-06-12T23:44:04.625Z,81.20
2018-06-12T23:49:07.189Z,81.30
2018-06-12T23:54:09.727Z,81.80
2018-06-12T23:59:12.386Z,81.50
